sensor_id;sensor_type;location;lat;lon;timestamp;temperature;humidity
2663;DHT22;49701;48.072;7.800;2022-09-09T00:00:49;16.80;99.90
2663;DHT22;49701;48.072;7.800;2022-09-09T00:03:22;16.70;99.90
2663;DHT22;49701;48.072;7.800;2022-09-09T00:08:19;16.70;99.90
2663;DHT22;49701;48.072;7.800;2022-09-09T00:10:45;16.70;99.90
2663;DHT22;49701;48.072;7.800;2022-09-09T00:15:54;16.80;99.90
2663;DHT22;49701;48.072;7.800;2022-09-09T00:18:27;16.90;99.90
2663;DHT22;49701;48.072;7.800;2022-09-09T00:21:14;17.00;99.90
2663;DHT22;49701;48.072;7.800;2022-09-09T00:23:49;17.00;99.90
2663;DHT22;49701;48.072;7.800;2022-09-09T00:26:33;17.10;99.90
2663;DHT22;49701;48.072;7.800;2022-09-09T00:31:28;17.00;99.90
2663;DHT22;49701;48.072;7.800;2022-09-09T00:33:55;17.00;99.90
2663;DHT22;49701;48.072;7.800;2022-09-09T00:36:24;17.00;99.90
2663;DHT22;49701;48.072;7.800;2022-09-09T00:38:52;17.00;99.90
2663;DHT22;49701;48.072;7.800;2022-09-09T00:41:22;17.00;99.90
2663;DHT22;49701;48.072;7.800;2022-09-09T00:43:55;17.10;99.90
2663;DHT22;49701;48.072;7.800;2022-09-09T00:46:25;17.10;99.90
2663;DHT22;49701;48.072;7.800;2022-09-09T00:49:03;17.10;99.90
2663;DHT22;49701;48.072;7.800;2022-09-09T00:51:56;17.10;99.90
2663;DHT22;49701;48.072;7.800;2022-09-09T00:55:03;17.10;99.90
2663;DHT22;49701;48.072;7.800;2022-09-09T00:57:07;17.10;99.90
2663;DHT22;49701;48.072;7.800;2022-09-09T01:02:10;17.00;99.90
2663;DHT22;49701;48.072;7.800;2022-09-09T01:04:38;16.80;99.90
2663;DHT22;49701;48.072;7.800;2022-09-09T01:07:07;16.70;99.90
2663;DHT22;49701;48.072;7.800;2022-09-09T01:17:03;16.50;99.90
2663;DHT22;49701;48.072;7.800;2022-09-09T01:27:38;16.50;99.90
2663;DHT22;49701;48.072;7.800;2022-09-09T01:30:08;16.60;99.90
2663;DHT22;49701;48.072;7.800;2022-09-09T01:32:39;16.70;99.90
2663;DHT22;49701;48.072;7.800;2022-09-09T01:35:07;16.80;99.90
2663;DHT22;49701;48.072;7.800;2022-09-09T01:37:34;16.90;99.90
2663;DHT22;49701;48.072;7.800;2022-09-09T01:39:59;16.90;99.90
2663;DHT22;49701;48.072;7.800;2022-09-09T01:42:25;16.90;99.90
2663;DHT22;49701;48.072;7.800;2022-09-09T01:44:50;16.90;99.90
2663;DHT22;49701;48.072;7.800;2022-09-09T01:47:16;16.90;99.90
2663;DHT22;49701;48.072;7.800;2022-09-09T01:49:42;16.90;99.90
2663;DHT22;49701;48.072;7.800;2022-09-09T01:52:08;16.90;99.90
2663;DHT22;49701;48.072;7.800;2022-09-09T01:54:34;17.00;99.90
2663;DHT22;49701;48.072;7.800;2022-09-09T01:57:12;17.00;99.90
2663;DHT22;49701;48.072;7.800;2022-09-09T02:04:35;17.10;99.90
2663;DHT22;49701;48.072;7.800;2022-09-09T02:07:01;17.20;99.90
2663;DHT22;49701;48.072;7.800;2022-09-09T02:09:28;17.20;99.90
2663;DHT22;49701;48.072;7.800;2022-09-09T02:12:16;17.20;99.90
2663;DHT22;49701;48.072;7.800;2022-09-09T02:14:42;17.20;99.90
2663;DHT22;49701;48.072;7.800;2022-09-09T02:17:09;17.10;99.90
2663;DHT22;49701;48.072;7.800;2022-09-09T02:19:37;17.10;99.90
2663;DHT22;49701;48.072;7.800;2022-09-09T02:22:04;17.10;99.90
2663;DHT22;49701;48.072;7.800;2022-09-09T02:24:31;17.20;99.90
2663;DHT22;49701;48.072;7.800;2022-09-09T02:26:58;17.10;99.90
2663;DHT22;49701;48.072;7.800;2022-09-09T02:29:33;17.20;99.90
2663;DHT22;49701;48.072;7.800;2022-09-09T02:32:03;17.10;99.90
2663;DHT22;49701;48.072;7.800;2022-09-09T02:34:31;17.10;99.90
2663;DHT22;49701;48.072;7.800;2022-09-09T02:36:59;17.20;99.90
2663;DHT22;49701;48.072;7.800;2022-09-09T02:39:26;17.10;99.90
2663;DHT22;49701;48.072;7.800;2022-09-09T02:41:51;17.20;99.90
2663;DHT22;49701;48.072;7.800;2022-09-09T02:44:18;17.20;99.90
2663;DHT22;49701;48.072;7.800;2022-09-09T02:52:00;17.40;99.90
2663;DHT22;49701;48.072;7.800;2022-09-09T02:54:30;17.30;99.90
2663;DHT22;49701;48.072;7.800;2022-09-09T02:57:00;17.30;99.90
2663;DHT22;49701;48.072;7.800;2022-09-09T02:59:26;17.40;99.90
2663;DHT22;49701;48.072;7.800;2022-09-09T03:01:52;17.40;99.90
2663;DHT22;49701;48.072;7.800;2022-09-09T03:04:18;17.40;99.90
2663;DHT22;49701;48.072;7.800;2022-09-09T03:06:44;17.40;99.90
2663;DHT22;49701;48.072;7.800;2022-09-09T03:09:09;17.40;99.90
2663;DHT22;49701;48.072;7.800;2022-09-09T03:11:36;17.40;99.90
2663;DHT22;49701;48.072;7.800;2022-09-09T03:14:02;17.30;99.90
2663;DHT22;49701;48.072;7.800;2022-09-09T03:16:27;17.30;99.90
2663;DHT22;49701;48.072;7.800;2022-09-09T03:18:53;17.20;99.90
2663;DHT22;49701;48.072;7.800;2022-09-09T03:21:18;17.20;99.90
2663;DHT22;49701;48.072;7.800;2022-09-09T03:23:43;17.20;99.90
2663;DHT22;49701;48.072;7.800;2022-09-09T03:26:10;17.20;99.90
2663;DHT22;49701;48.072;7.800;2022-09-09T03:28:35;17.20;99.90
2663;DHT22;49701;48.072;7.800;2022-09-09T03:31:01;17.20;99.90
2663;DHT22;49701;48.072;7.800;2022-09-09T03:33:27;17.20;99.90
2663;DHT22;49701;48.072;7.800;2022-09-09T03:35:53;17.20;99.90
2663;DHT22;49701;48.072;7.800;2022-09-09T03:38:24;17.20;99.90
2663;DHT22;49701;48.072;7.800;2022-09-09T03:40:50;17.20;99.90
2663;DHT22;49701;48.072;7.800;2022-09-09T03:43:16;17.20;99.90
2663;DHT22;49701;48.072;7.800;2022-09-09T03:45:45;17.20;99.90
2663;DHT22;49701;48.072;7.800;2022-09-09T03:48:13;17.20;99.90
2663;DHT22;49701;48.072;7.800;2022-09-09T03:50:38;17.10;99.90
2663;DHT22;49701;48.072;7.800;2022-09-09T03:53:04;17.00;99.90
2663;DHT22;49701;48.072;7.800;2022-09-09T03:55:31;16.90;99.90
2663;DHT22;49701;48.072;7.800;2022-09-09T03:57:57;16.80;99.90
2663;DHT22;49701;48.072;7.800;2022-09-09T04:00:23;16.70;99.90
2663;DHT22;49701;48.072;7.800;2022-09-09T04:02:49;16.60;99.90
2663;DHT22;49701;48.072;7.800;2022-09-09T04:05:15;16.50;99.90
2663;DHT22;49701;48.072;7.800;2022-09-09T04:07:40;16.50;99.90
2663;DHT22;49701;48.072;7.800;2022-09-09T04:10:06;16.50;99.90
2663;DHT22;49701;48.072;7.800;2022-09-09T04:12:32;16.50;99.90
2663;DHT22;49701;48.072;7.800;2022-09-09T04:14:58;16.40;99.90
2663;DHT22;49701;48.072;7.800;2022-09-09T04:17:23;16.40;99.90
2663;DHT22;49701;48.072;7.800;2022-09-09T04:19:49;16.30;99.90
2663;DHT22;49701;48.072;7.800;2022-09-09T04:22:14;16.30;99.90
2663;DHT22;49701;48.072;7.800;2022-09-09T04:24:41;16.20;99.90
2663;DHT22;49701;48.072;7.800;2022-09-09T04:27:06;16.20;99.90
2663;DHT22;49701;48.072;7.800;2022-09-09T04:29:32;16.20;99.90
2663;DHT22;49701;48.072;7.800;2022-09-09T04:31:57;16.20;99.90
2663;DHT22;49701;48.072;7.800;2022-09-09T04:34:23;16.20;99.90
2663;DHT22;49701;48.072;7.800;2022-09-09T04:36:48;16.20;99.90
2663;DHT22;49701;48.072;7.800;2022-09-09T04:39:14;16.20;99.90
2663;DHT22;49701;48.072;7.800;2022-09-09T04:41:39;16.30;99.90
2663;DHT22;49701;48.072;7.800;2022-09-09T04:44:05;16.30;99.90
2663;DHT22;49701;48.072;7.800;2022-09-09T04:46:31;16.40;99.90
2663;DHT22;49701;48.072;7.800;2022-09-09T04:48:56;16.50;99.90
2663;DHT22;49701;48.072;7.800;2022-09-09T04:51:21;16.50;99.90
2663;DHT22;49701;48.072;7.800;2022-09-09T04:53:47;16.50;99.90
2663;DHT22;49701;48.072;7.800;2022-09-09T04:56:14;16.60;99.90
2663;DHT22;49701;48.072;7.800;2022-09-09T04:58:40;16.60;99.90
2663;DHT22;49701;48.072;7.800;2022-09-09T05:01:11;16.70;99.90
2663;DHT22;49701;48.072;7.800;2022-09-09T05:03:37;16.70;99.90
2663;DHT22;49701;48.072;7.800;2022-09-09T05:06:06;16.80;99.90
2663;DHT22;49701;48.072;7.800;2022-09-09T05:08:33;16.90;99.90
2663;DHT22;49701;48.072;7.800;2022-09-09T05:10:59;16.90;99.90
2663;DHT22;49701;48.072;7.800;2022-09-09T05:13:25;17.00;99.90
2663;DHT22;49701;48.072;7.800;2022-09-09T05:15:52;17.00;99.90
2663;DHT22;49701;48.072;7.800;2022-09-09T05:18:17;17.00;99.90
2663;DHT22;49701;48.072;7.800;2022-09-09T05:20:43;17.00;99.90
2663;DHT22;49701;48.072;7.800;2022-09-09T05:23:08;17.00;99.90
2663;DHT22;49701;48.072;7.800;2022-09-09T05:25:36;17.10;99.90
2663;DHT22;49701;48.072;7.800;2022-09-09T05:28:01;17.10;99.90
2663;DHT22;49701;48.072;7.800;2022-09-09T05:30:27;17.10;99.90
2663;DHT22;49701;48.072;7.800;2022-09-09T05:32:55;17.10;99.90
2663;DHT22;49701;48.072;7.800;2022-09-09T05:35:20;17.20;99.90
2663;DHT22;49701;48.072;7.800;2022-09-09T05:37:46;17.20;99.90
2663;DHT22;49701;48.072;7.800;2022-09-09T05:40:13;17.20;99.90
2663;DHT22;49701;48.072;7.800;2022-09-09T05:42:38;17.20;99.90
2663;DHT22;49701;48.072;7.800;2022-09-09T05:45:05;17.20;99.90
2663;DHT22;49701;48.072;7.800;2022-09-09T05:47:30;17.20;99.90
2663;DHT22;49701;48.072;7.800;2022-09-09T05:49:56;17.20;99.90
2663;DHT22;49701;48.072;7.800;2022-09-09T05:52:21;17.20;99.90
2663;DHT22;49701;48.072;7.800;2022-09-09T05:54:47;17.30;99.90
2663;DHT22;49701;48.072;7.800;2022-09-09T05:57:13;17.30;99.90
2663;DHT22;49701;48.072;7.800;2022-09-09T05:59:38;17.30;99.90
2663;DHT22;49701;48.072;7.800;2022-09-09T06:02:04;17.30;99.90
2663;DHT22;49701;48.072;7.800;2022-09-09T06:04:29;17.40;99.90
2663;DHT22;49701;48.072;7.800;2022-09-09T06:06:55;17.40;99.90
2663;DHT22;49701;48.072;7.800;2022-09-09T06:09:21;17.50;99.90
2663;DHT22;49701;48.072;7.800;2022-09-09T06:11:46;17.60;99.90
2663;DHT22;49701;48.072;7.800;2022-09-09T06:14:12;17.60;99.90
2663;DHT22;49701;48.072;7.800;2022-09-09T06:16:37;17.60;99.90
2663;DHT22;49701;48.072;7.800;2022-09-09T06:19:03;17.70;99.90
2663;DHT22;49701;48.072;7.800;2022-09-09T06:21:33;17.80;99.90
2663;DHT22;49701;48.072;7.800;2022-09-09T06:23:59;17.80;99.90
2663;DHT22;49701;48.072;7.800;2022-09-09T06:26:29;17.90;99.90
2663;DHT22;49701;48.072;7.800;2022-09-09T06:28:55;18.00;99.90
2663;DHT22;49701;48.072;7.800;2022-09-09T06:31:23;18.00;99.90
2663;DHT22;49701;48.072;7.800;2022-09-09T06:33:50;18.10;99.90
2663;DHT22;49701;48.072;7.800;2022-09-09T06:36:16;18.20;99.90
2663;DHT22;49701;48.072;7.800;2022-09-09T06:38:43;18.30;99.90
2663;DHT22;49701;48.072;7.800;2022-09-09T06:41:09;18.40;99.90
2663;DHT22;49701;48.072;7.800;2022-09-09T06:43:35;18.60;99.90
2663;DHT22;49701;48.072;7.800;2022-09-09T06:46:05;18.90;99.90
2663;DHT22;49701;48.072;7.800;2022-09-09T06:48:31;18.90;99.90
2663;DHT22;49701;48.072;7.800;2022-09-09T06:51:00;19.00;99.90
2663;DHT22;49701;48.072;7.800;2022-09-09T06:53:26;18.90;99.90
2663;DHT22;49701;48.072;7.800;2022-09-09T06:55:52;19.00;99.90
2663;DHT22;49701;48.072;7.800;2022-09-09T06:58:18;19.20;99.90
2663;DHT22;49701;48.072;7.800;2022-09-09T07:00:43;19.40;99.90
2663;DHT22;49701;48.072;7.800;2022-09-09T07:03:09;19.70;99.90
2663;DHT22;49701;48.072;7.800;2022-09-09T07:05:35;20.00;99.90
2663;DHT22;49701;48.072;7.800;2022-09-09T07:08:00;20.10;99.90
2663;DHT22;49701;48.072;7.800;2022-09-09T07:10:26;20.20;99.90
2663;DHT22;49701;48.072;7.800;2022-09-09T07:12:51;20.30;99.90
2663;DHT22;49701;48.072;7.800;2022-09-09T07:15:20;20.40;99.90
2663;DHT22;49701;48.072;7.800;2022-09-09T07:17:46;20.60;99.90
2663;DHT22;49701;48.072;7.800;2022-09-09T07:20:13;20.60;99.90
2663;DHT22;49701;48.072;7.800;2022-09-09T07:22:40;20.60;99.90
2663;DHT22;49701;48.072;7.800;2022-09-09T07:25:05;20.80;99.90
2663;DHT22;49701;48.072;7.800;2022-09-09T07:27:31;20.70;99.90
2663;DHT22;49701;48.072;7.800;2022-09-09T07:29:56;20.50;99.90
2663;DHT22;49701;48.072;7.800;2022-09-09T07:32:22;20.60;99.90
2663;DHT22;49701;48.072;7.800;2022-09-09T07:34:48;20.70;99.90
2663;DHT22;49701;48.072;7.800;2022-09-09T07:37:15;20.90;99.90
2663;DHT22;49701;48.072;7.800;2022-09-09T07:39:41;21.00;99.90
2663;DHT22;49701;48.072;7.800;2022-09-09T07:42:07;20.90;99.90
2663;DHT22;49701;48.072;7.800;2022-09-09T07:44:33;20.80;99.90
2663;DHT22;49701;48.072;7.800;2022-09-09T07:47:01;20.60;99.90
2663;DHT22;49701;48.072;7.800;2022-09-09T07:49:26;20.50;99.90
2663;DHT22;49701;48.072;7.800;2022-09-09T07:51:51;20.50;99.90
2663;DHT22;49701;48.072;7.800;2022-09-09T07:54:18;20.50;99.90
2663;DHT22;49701;48.072;7.800;2022-09-09T07:56:48;20.50;99.90
2663;DHT22;49701;48.072;7.800;2022-09-09T07:59:14;20.40;99.90
2663;DHT22;49701;48.072;7.800;2022-09-09T08:01:44;20.30;99.90
2663;DHT22;49701;48.072;7.800;2022-09-09T08:04:11;20.20;99.90
2663;DHT22;49701;48.072;7.800;2022-09-09T08:06:41;20.10;99.90
2663;DHT22;49701;48.072;7.800;2022-09-09T08:09:08;20.00;99.90
2663;DHT22;49701;48.072;7.800;2022-09-09T08:11:33;20.00;99.90
2663;DHT22;49701;48.072;7.800;2022-09-09T08:14:01;20.00;99.90
2663;DHT22;49701;48.072;7.800;2022-09-09T08:16:31;20.10;99.90
2663;DHT22;49701;48.072;7.800;2022-09-09T08:18:57;20.40;99.90
2663;DHT22;49701;48.072;7.800;2022-09-09T08:21:25;20.90;99.90
2663;DHT22;49701;48.072;7.800;2022-09-09T08:23:53;21.20;99.90
2663;DHT22;49701;48.072;7.800;2022-09-09T08:26:20;21.60;99.90
2663;DHT22;49701;48.072;7.800;2022-09-09T08:28:47;21.70;99.90
2663;DHT22;49701;48.072;7.800;2022-09-09T08:31:15;21.90;99.90
2663;DHT22;49701;48.072;7.800;2022-09-09T08:33:41;21.90;99.90
2663;DHT22;49701;48.072;7.800;2022-09-09T08:36:09;21.90;99.90
2663;DHT22;49701;48.072;7.800;2022-09-09T08:38:35;22.10;99.90
2663;DHT22;49701;48.072;7.800;2022-09-09T08:41:12;22.20;99.90
2663;DHT22;49701;48.072;7.800;2022-09-09T08:43:40;22.40;99.90
2663;DHT22;49701;48.072;7.800;2022-09-09T08:46:09;22.40;99.90
2663;DHT22;49701;48.072;7.800;2022-09-09T08:48:44;22.60;99.90
2663;DHT22;49701;48.072;7.800;2022-09-09T08:51:13;22.50;99.90
2663;DHT22;49701;48.072;7.800;2022-09-09T08:53:43;22.70;99.90
2663;DHT22;49701;48.072;7.800;2022-09-09T08:56:13;22.90;99.90
2663;DHT22;49701;48.072;7.800;2022-09-09T08:58:49;23.00;99.90
2663;DHT22;49701;48.072;7.800;2022-09-09T09:09:02;23.60;99.90
2663;DHT22;49701;48.072;7.800;2022-09-09T09:11:50;23.80;99.90
2663;DHT22;49701;48.072;7.800;2022-09-09T09:14:18;23.90;99.90
2663;DHT22;49701;48.072;7.800;2022-09-09T09:16:51;24.00;99.90
2663;DHT22;49701;48.072;7.800;2022-09-09T09:19:17;23.90;99.90
2663;DHT22;49701;48.072;7.800;2022-09-09T09:21:44;23.60;99.90
2663;DHT22;49701;48.072;7.800;2022-09-09T09:24:24;23.50;99.90
2663;DHT22;49701;48.072;7.800;2022-09-09T09:26:51;23.40;99.90
2663;DHT22;49701;48.072;7.800;2022-09-09T09:29:18;23.30;99.90
2663;DHT22;49701;48.072;7.800;2022-09-09T09:31:48;23.10;99.90
2663;DHT22;49701;48.072;7.800;2022-09-09T09:34:14;22.90;99.90
2663;DHT22;49701;48.072;7.800;2022-09-09T09:39:09;23.20;99.90
2663;DHT22;49701;48.072;7.800;2022-09-09T09:41:39;23.60;99.90
2663;DHT22;49701;48.072;7.800;2022-09-09T09:44:05;23.80;99.90
2663;DHT22;49701;48.072;7.800;2022-09-09T09:46:32;23.90;99.90
2663;DHT22;49701;48.072;7.800;2022-09-09T09:49:02;23.80;99.90
2663;DHT22;49701;48.072;7.800;2022-09-09T09:51:29;23.80;99.90
2663;DHT22;49701;48.072;7.800;2022-09-09T09:54:03;24.10;99.90
2663;DHT22;49701;48.072;7.800;2022-09-09T09:56:31;24.30;99.90
2663;DHT22;49701;48.072;7.800;2022-09-09T09:58:57;24.70;99.90
2663;DHT22;49701;48.072;7.800;2022-09-09T10:01:27;25.20;99.90
2663;DHT22;49701;48.072;7.800;2022-09-09T10:03:58;25.60;98.60
2663;DHT22;49701;48.072;7.800;2022-09-09T10:06:31;26.00;98.10
2663;DHT22;49701;48.072;7.800;2022-09-09T10:08:58;26.40;97.30
2663;DHT22;49701;48.072;7.800;2022-09-09T10:16:19;26.50;94.60
2663;DHT22;49701;48.072;7.800;2022-09-09T10:18:51;26.70;93.70
2663;DHT22;49701;48.072;7.800;2022-09-09T10:26:51;26.10;92.60
2663;DHT22;49701;48.072;7.800;2022-09-09T10:32:10;25.10;94.40
2663;DHT22;49701;48.072;7.800;2022-09-09T10:37:13;25.00;95.20
2663;DHT22;49701;48.072;7.800;2022-09-09T10:39:42;24.80;95.00
2663;DHT22;49701;48.072;7.800;2022-09-09T10:42:14;24.40;95.20
2663;DHT22;49701;48.072;7.800;2022-09-09T10:49:45;24.10;95.00
2663;DHT22;49701;48.072;7.800;2022-09-09T10:52:38;24.50;95.00
2663;DHT22;49701;48.072;7.800;2022-09-09T10:55:26;25.00;94.60
2663;DHT22;49701;48.072;7.800;2022-09-09T10:57:53;25.00;93.80
2663;DHT22;49701;48.072;7.800;2022-09-09T11:00:24;24.60;93.80
2663;DHT22;49701;48.072;7.800;2022-09-09T11:02:53;24.10;95.20
2663;DHT22;49701;48.072;7.800;2022-09-09T11:08:06;23.50;96.90
2663;DHT22;49701;48.072;7.800;2022-09-09T11:13:08;23.40;97.00
2663;DHT22;49701;48.072;7.800;2022-09-09T11:15:36;23.30;96.30
2663;DHT22;49701;48.072;7.800;2022-09-09T11:18:04;23.20;96.40
2663;DHT22;49701;48.072;7.800;2022-09-09T11:20:31;23.10;96.70
2663;DHT22;49701;48.072;7.800;2022-09-09T11:23:02;22.90;97.10
2663;DHT22;49701;48.072;7.800;2022-09-09T11:25:34;22.80;97.50
2663;DHT22;49701;48.072;7.800;2022-09-09T11:30:36;22.40;98.00
2663;DHT22;49701;48.072;7.800;2022-09-09T11:35:39;22.20;99.20
2663;DHT22;49701;48.072;7.800;2022-09-09T11:40:34;22.70;99.50
2663;DHT22;49701;48.072;7.800;2022-09-09T11:43:10;23.40;99.00
2663;DHT22;49701;48.072;7.800;2022-09-09T11:45:38;23.90;98.50
2663;DHT22;49701;48.072;7.800;2022-09-09T11:48:04;23.90;97.90
2663;DHT22;49701;48.072;7.800;2022-09-09T11:53:16;23.90;97.10
2663;DHT22;49701;48.072;7.800;2022-09-09T11:55:42;24.20;97.00
2663;DHT22;49701;48.072;7.800;2022-09-09T12:00:41;24.30;96.20
2663;DHT22;49701;48.072;7.800;2022-09-09T12:05:51;24.20;95.50
2663;DHT22;49701;48.072;7.800;2022-09-09T12:08:26;24.30;94.80
2663;DHT22;49701;48.072;7.800;2022-09-09T12:10:56;24.70;93.30
2663;DHT22;49701;48.072;7.800;2022-09-09T12:13:23;24.90;92.60
2663;DHT22;49701;48.072;7.800;2022-09-09T12:15:50;24.80;92.80
2663;DHT22;49701;48.072;7.800;2022-09-09T12:18:24;24.50;93.20
2663;DHT22;49701;48.072;7.800;2022-09-09T12:31:26;25.10;92.30
2663;DHT22;49701;48.072;7.800;2022-09-09T12:34:02;25.30;91.90
2663;DHT22;49701;48.072;7.800;2022-09-09T12:36:29;25.10;92.30
2663;DHT22;49701;48.072;7.800;2022-09-09T12:38:55;24.60;92.80
2663;DHT22;49701;48.072;7.800;2022-09-09T12:41:26;24.30;93.70
2663;DHT22;49701;48.072;7.800;2022-09-09T12:44:03;24.10;94.00
2663;DHT22;49701;48.072;7.800;2022-09-09T12:46:34;24.00;93.50
2663;DHT22;49701;48.072;7.800;2022-09-09T12:49:02;23.90;93.40
2663;DHT22;49701;48.072;7.800;2022-09-09T12:51:29;23.60;93.40
2663;DHT22;49701;48.072;7.800;2022-09-09T12:53:55;23.50;93.90
2663;DHT22;49701;48.072;7.800;2022-09-09T12:56:22;23.50;94.00
2663;DHT22;49701;48.072;7.800;2022-09-09T12:58:50;23.30;94.20
2663;DHT22;49701;48.072;7.800;2022-09-09T13:01:24;23.10;94.80
2663;DHT22;49701;48.072;7.800;2022-09-09T13:03:50;23.00;94.90
2663;DHT22;49701;48.072;7.800;2022-09-09T13:06:20;22.80;95.30
2663;DHT22;49701;48.072;7.800;2022-09-09T13:08:48;22.50;95.60
2663;DHT22;49701;48.072;7.800;2022-09-09T13:11:14;22.40;96.20
2663;DHT22;49701;48.072;7.800;2022-09-09T13:13:41;22.40;96.50
2663;DHT22;49701;48.072;7.800;2022-09-09T13:16:18;22.60;96.80
2663;DHT22;49701;48.072;7.800;2022-09-09T13:18:44;23.00;96.20
2663;DHT22;49701;48.072;7.800;2022-09-09T13:21:09;23.70;95.60
2663;DHT22;49701;48.072;7.800;2022-09-09T13:23:36;24.20;95.10
2663;DHT22;49701;48.072;7.800;2022-09-09T13:26:03;24.20;95.20
2663;DHT22;49701;48.072;7.800;2022-09-09T13:28:30;23.90;95.50
2663;DHT22;49701;48.072;7.800;2022-09-09T13:33:28;23.30;96.60
2663;DHT22;49701;48.072;7.800;2022-09-09T13:35:55;23.10;97.50
2663;DHT22;49701;48.072;7.800;2022-09-09T13:38:21;22.90;98.40
2663;DHT22;49701;48.072;7.800;2022-09-09T13:40:57;22.70;98.60
2663;DHT22;49701;48.072;7.800;2022-09-09T13:43:23;22.30;99.00
2663;DHT22;49701;48.072;7.800;2022-09-09T13:45:57;22.00;99.90
2663;DHT22;49701;48.072;7.800;2022-09-09T13:48:23;21.80;99.90
2663;DHT22;49701;48.072;7.800;2022-09-09T13:50:59;21.60;99.90
2663;DHT22;49701;48.072;7.800;2022-09-09T13:53:25;21.30;99.90
2663;DHT22;49701;48.072;7.800;2022-09-09T13:55:51;21.10;99.90
2663;DHT22;49701;48.072;7.800;2022-09-09T13:58:17;20.90;99.90
2663;DHT22;49701;48.072;7.800;2022-09-09T14:00:46;20.80;99.90
2663;DHT22;49701;48.072;7.800;2022-09-09T14:03:12;21.00;99.90
2663;DHT22;49701;48.072;7.800;2022-09-09T14:05:38;21.50;99.90
2663;DHT22;49701;48.072;7.800;2022-09-09T14:08:04;21.90;99.90
2663;DHT22;49701;48.072;7.800;2022-09-09T14:10:30;22.40;99.90
2663;DHT22;49701;48.072;7.800;2022-09-09T14:12:56;22.80;99.90
2663;DHT22;49701;48.072;7.800;2022-09-09T14:15:21;23.10;99.90
2663;DHT22;49701;48.072;7.800;2022-09-09T14:17:47;23.60;99.90
2663;DHT22;49701;48.072;7.800;2022-09-09T14:20:14;23.80;99.10
2663;DHT22;49701;48.072;7.800;2022-09-09T14:22:41;24.10;98.40
2663;DHT22;49701;48.072;7.800;2022-09-09T14:25:06;24.30;98.00
2663;DHT22;49701;48.072;7.800;2022-09-09T14:27:32;24.40;97.80
2663;DHT22;49701;48.072;7.800;2022-09-09T14:29:58;24.40;97.90
2663;DHT22;49701;48.072;7.800;2022-09-09T14:32:25;24.50;97.90
2663;DHT22;49701;48.072;7.800;2022-09-09T14:34:50;24.70;97.90
2663;DHT22;49701;48.072;7.800;2022-09-09T14:37:16;24.90;97.70
2663;DHT22;49701;48.072;7.800;2022-09-09T14:39:42;25.20;97.80
2663;DHT22;49701;48.072;7.800;2022-09-09T14:42:09;25.30;96.60
2663;DHT22;49701;48.072;7.800;2022-09-09T14:44:36;25.20;96.30
2663;DHT22;49701;48.072;7.800;2022-09-09T14:47:04;24.90;96.00
2663;DHT22;49701;48.072;7.800;2022-09-09T14:49:29;24.70;96.70
2663;DHT22;49701;48.072;7.800;2022-09-09T14:51:55;24.40;97.00
2663;DHT22;49701;48.072;7.800;2022-09-09T14:54:20;24.20;97.40
2663;DHT22;49701;48.072;7.800;2022-09-09T14:56:48;23.90;96.40
2663;DHT22;49701;48.072;7.800;2022-09-09T14:59:13;23.50;96.90
2663;DHT22;49701;48.072;7.800;2022-09-09T15:01:39;23.30;96.70
2663;DHT22;49701;48.072;7.800;2022-09-09T15:04:04;23.10;96.30
2663;DHT22;49701;48.072;7.800;2022-09-09T15:06:31;23.00;96.70
2663;DHT22;49701;48.072;7.800;2022-09-09T15:08:58;22.80;97.00
2663;DHT22;49701;48.072;7.800;2022-09-09T15:11:28;22.70;97.20
2663;DHT22;49701;48.072;7.800;2022-09-09T15:13:55;22.70;98.00
2663;DHT22;49701;48.072;7.800;2022-09-09T15:16:22;22.70;97.60
2663;DHT22;49701;48.072;7.800;2022-09-09T15:18:50;22.80;97.20
2663;DHT22;49701;48.072;7.800;2022-09-09T15:21:17;22.90;96.80
2663;DHT22;49701;48.072;7.800;2022-09-09T15:23:44;22.80;97.20
2663;DHT22;49701;48.072;7.800;2022-09-09T15:26:09;22.80;96.80
2663;DHT22;49701;48.072;7.800;2022-09-09T15:28:36;22.70;97.10
2663;DHT22;49701;48.072;7.800;2022-09-09T15:31:09;22.50;97.10
2663;DHT22;49701;48.072;7.800;2022-09-09T15:33:36;22.30;97.60
2663;DHT22;49701;48.072;7.800;2022-09-09T15:36:21;22.10;98.20
2663;DHT22;49701;48.072;7.800;2022-09-09T15:38:47;22.00;98.30
2663;DHT22;49701;48.072;7.800;2022-09-09T15:41:13;21.90;98.80
2663;DHT22;49701;48.072;7.800;2022-09-09T15:43:42;21.70;99.20
2663;DHT22;49701;48.072;7.800;2022-09-09T15:48:43;21.40;99.90
2663;DHT22;49701;48.072;7.800;2022-09-09T15:51:09;21.40;99.90
2663;DHT22;49701;48.072;7.800;2022-09-09T15:53:36;21.30;99.90
2663;DHT22;49701;48.072;7.800;2022-09-09T15:56:04;21.30;99.90
2663;DHT22;49701;48.072;7.800;2022-09-09T15:58:32;21.20;99.90
2663;DHT22;49701;48.072;7.800;2022-09-09T16:01:04;21.10;99.90
2663;DHT22;49701;48.072;7.800;2022-09-09T16:03:33;21.10;99.90
2663;DHT22;49701;48.072;7.800;2022-09-09T16:05:59;21.10;99.90
2663;DHT22;49701;48.072;7.800;2022-09-09T16:08:25;21.00;99.90
2663;DHT22;49701;48.072;7.800;2022-09-09T16:10:56;20.90;99.90
2663;DHT22;49701;48.072;7.800;2022-09-09T16:13:21;20.90;99.90
2663;DHT22;49701;48.072;7.800;2022-09-09T16:15:53;20.80;99.90
2663;DHT22;49701;48.072;7.800;2022-09-09T16:18:18;20.70;99.90
2663;DHT22;49701;48.072;7.800;2022-09-09T16:20:53;20.50;99.90
2663;DHT22;49701;48.072;7.800;2022-09-09T16:23:18;20.10;99.90
2663;DHT22;49701;48.072;7.800;2022-09-09T16:25:52;19.70;99.90
2663;DHT22;49701;48.072;7.800;2022-09-09T16:28:17;19.40;99.90
2663;DHT22;49701;48.072;7.800;2022-09-09T16:30:43;19.10;99.90
2663;DHT22;49701;48.072;7.800;2022-09-09T16:33:08;18.90;99.90
2663;DHT22;49701;48.072;7.800;2022-09-09T16:35:36;18.70;99.90
2663;DHT22;49701;48.072;7.800;2022-09-09T16:38:01;18.60;99.90
2663;DHT22;49701;48.072;7.800;2022-09-09T16:40:27;18.40;99.90
2663;DHT22;49701;48.072;7.800;2022-09-09T16:42:52;18.20;99.90
2663;DHT22;49701;48.072;7.800;2022-09-09T16:45:18;18.20;99.90
2663;DHT22;49701;48.072;7.800;2022-09-09T16:47:43;18.10;99.90
2663;DHT22;49701;48.072;7.800;2022-09-09T16:50:09;18.10;99.90
2663;DHT22;49701;48.072;7.800;2022-09-09T16:52:35;18.00;99.90
2663;DHT22;49701;48.072;7.800;2022-09-09T16:55:00;18.00;99.90
2663;DHT22;49701;48.072;7.800;2022-09-09T16:57:26;17.90;99.90
2663;DHT22;49701;48.072;7.800;2022-09-09T16:59:51;17.90;99.90
2663;DHT22;49701;48.072;7.800;2022-09-09T17:02:19;17.90;99.90
2663;DHT22;49701;48.072;7.800;2022-09-09T17:04:44;17.80;99.90
2663;DHT22;49701;48.072;7.800;2022-09-09T17:07:10;17.80;99.90
2663;DHT22;49701;48.072;7.800;2022-09-09T17:09:35;17.70;99.90
2663;DHT22;49701;48.072;7.800;2022-09-09T17:12:01;17.60;99.90
2663;DHT22;49701;48.072;7.800;2022-09-09T17:14:26;17.50;99.90
2663;DHT22;49701;48.072;7.800;2022-09-09T17:16:52;17.50;99.90
2663;DHT22;49701;48.072;7.800;2022-09-09T17:19:17;17.40;99.90
2663;DHT22;49701;48.072;7.800;2022-09-09T17:21:43;17.40;99.90
2663;DHT22;49701;48.072;7.800;2022-09-09T17:24:10;17.40;99.90
2663;DHT22;49701;48.072;7.800;2022-09-09T17:26:35;17.30;99.90
2663;DHT22;49701;48.072;7.800;2022-09-09T17:29:03;17.40;99.90
2663;DHT22;49701;48.072;7.800;2022-09-09T17:31:29;17.30;99.90